createdAt,value
2023-02-23T00:01:26.792Z,13.43
2023-02-23T00:03:58.476Z,12.43
2023-02-23T00:06:27.683Z,11.38
2023-02-23T00:08:54.669Z,14.25
2023-02-23T00:11:22.302Z,12.60
2023-02-23T00:13:50.668Z,13.15
2023-02-23T00:16:20.175Z,12.27
2023-02-23T00:18:50.987Z,12.18
2023-02-23T00:21:25.700Z,13.60
2023-02-23T00:23:55.062Z,13.93
2023-02-23T00:26:24.409Z,12.68
2023-02-23T00:28:53.145Z,12.80
2023-02-23T00:31:27.139Z,12.18
2023-02-23T00:36:24.044Z,10.57
2023-02-23T00:38:58.795Z,12.23
2023-02-23T00:41:28.474Z,12.40
2023-02-23T00:44:00.556Z,10.27
2023-02-23T00:46:29.321Z,9.45
2023-02-23T00:48:58.144Z,11.18
2023-02-23T00:51:27.400Z,14.05
2023-02-23T00:53:55.257Z,11.80
2023-02-23T00:56:22.357Z,11.90
2023-02-23T00:58:49.072Z,13.13
2023-02-23T01:01:17.347Z,14.00
2023-02-23T01:03:45.039Z,11.82
2023-02-23T01:06:14.715Z,12.27
2023-02-23T01:08:45.492Z,12.18
2023-02-23T01:11:15.531Z,12.82
2023-02-23T01:13:44.069Z,13.77
2023-02-23T01:16:13.716Z,12.23
2023-02-23T01:18:44.581Z,13.75
2023-02-23T01:21:20.615Z,13.85
2023-02-23T01:23:47.476Z,12.10
2023-02-23T01:26:19.173Z,14.00
2023-02-23T01:28:53.895Z,13.38
2023-02-23T01:31:23.021Z,12.48
2023-02-23T01:33:58.382Z,12.60
2023-02-23T01:36:26.126Z,14.43
2023-02-23T01:38:56.448Z,13.30
2023-02-23T01:41:24.887Z,11.15
2023-02-23T01:44:06.281Z,13.00
2023-02-23T01:46:39.216Z,12.55
2023-02-23T01:49:09.503Z,13.98
2023-02-23T01:51:43.023Z,12.38
2023-02-23T01:54:14.425Z,13.85
2023-02-23T01:56:49.343Z,14.13
2023-02-23T01:59:17.964Z,13.32
2023-02-23T02:01:45.467Z,11.00
2023-02-23T02:04:16.886Z,12.77
2023-02-23T02:06:45.822Z,13.95
2023-02-23T02:09:17.477Z,14.27
2023-02-23T02:11:46.365Z,11.90
2023-02-23T02:14:14.489Z,13.10
2023-02-23T02:16:50.244Z,13.05
2023-02-23T02:19:38.779Z,14.38
2023-02-23T02:22:39.261Z,13.60
2023-02-23T02:25:17.971Z,12.60
2023-02-23T02:28:12.590Z,13.02
2023-02-23T02:30:57.078Z,12.43
2023-02-23T02:33:38.700Z,9.80
2023-02-23T02:36:23.008Z,12.77
2023-02-23T02:40:15.174Z,12.65
2023-02-23T02:42:52.623Z,11.77
2023-02-23T02:45:54.240Z,12.75
2023-02-23T02:48:39.173Z,12.82
2023-02-23T02:51:22.066Z,12.07
2023-02-23T02:54:00.198Z,12.05
2023-02-23T02:56:27.310Z,13.75
2023-02-23T02:58:57.355Z,13.40
2023-02-23T03:01:42.727Z,13.77
2023-02-23T03:04:43.436Z,12.30
2023-02-23T03:07:41.391Z,12.65
2023-02-23T03:10:58.156Z,11.25
2023-02-23T03:14:06.644Z,13.15
2023-02-23T03:17:01.190Z,12.25
2023-02-23T03:19:55.390Z,14.13
2023-02-23T03:22:47.005Z,10.85
2023-02-23T03:25:43.385Z,11.32
2023-02-23T03:28:45.430Z,11.10
2023-02-23T03:31:59.037Z,12.02
2023-02-23T03:34:55.861Z,12.60
2023-02-23T03:37:57.756Z,12.48
2023-02-23T03:40:53.219Z,10.82
2023-02-23T03:43:45.547Z,12.50
2023-02-23T03:46:33.902Z,12.32
2023-02-23T03:49:23.700Z,12.93
2023-02-23T03:52:16.412Z,12.82
2023-02-23T03:55:13.417Z,11.10
2023-02-23T03:58:00.518Z,12.13
2023-02-23T04:00:52.935Z,11.07
2023-02-23T04:03:39.971Z,11.68
2023-02-23T04:06:29.835Z,12.02
2023-02-23T04:09:20.362Z,9.93
2023-02-23T04:12:13.239Z,13.55
2023-02-23T04:14:43.621Z,11.60
2023-02-23T04:17:12.168Z,13.02
2023-02-23T04:19:38.785Z,12.80
2023-02-23T04:22:05.375Z,13.63
2023-02-23T04:24:31.890Z,10.23
2023-02-23T04:26:58.520Z,11.38
2023-02-23T04:29:25.090Z,12.75
2023-02-23T04:31:51.952Z,11.43
2023-02-23T04:34:18.752Z,13.55
2023-02-23T04:36:47.481Z,14.00
2023-02-23T04:39:14.340Z,13.52
2023-02-23T04:41:41.028Z,14.10
2023-02-23T04:44:07.616Z,11.73
2023-02-23T04:46:34.503Z,12.70
2023-02-23T04:49:01.111Z,13.18
2023-02-23T04:51:32.156Z,13.52
2023-02-23T04:53:58.711Z,12.25
2023-02-23T04:56:25.964Z,12.30
2023-02-23T04:58:52.564Z,11.10
2023-02-23T05:01:20.897Z,14.23
2023-02-23T05:03:50.625Z,11.57
2023-02-23T05:06:17.910Z,13.27
2023-02-23T05:08:45.571Z,13.98
2023-02-23T05:11:12.620Z,14.82
2023-02-23T05:13:39.228Z,13.82
2023-02-23T05:16:06.477Z,14.93
2023-02-23T05:18:33.061Z,13.10
2023-02-23T05:21:08.423Z,12.63
2023-02-23T05:23:36.178Z,14.10
2023-02-23T05:26:06.300Z,11.50
2023-02-23T05:28:35.563Z,13.85
2023-02-23T05:31:03.788Z,12.45
2023-02-23T05:33:31.523Z,12.27
2023-02-23T05:35:58.793Z,14.02
2023-02-23T05:38:27.332Z,15.15
2023-02-23T05:40:54.029Z,13.90
2023-02-23T05:43:21.104Z,11.68
2023-02-23T05:45:47.696Z,13.40
2023-02-23T05:48:14.447Z,13.70
2023-02-23T05:50:41.013Z,13.60
2023-02-23T05:53:07.837Z,15.88
2023-02-23T05:55:35.788Z,13.18
2023-02-23T05:58:02.444Z,15.55
2023-02-23T06:00:29.023Z,15.23
2023-02-23T06:02:55.764Z,14.18
2023-02-23T06:05:22.382Z,15.15
2023-02-23T06:07:49.023Z,15.95
2023-02-23T06:10:15.591Z,15.10
2023-02-23T06:12:42.159Z,15.55
2023-02-23T06:15:09.231Z,13.02
2023-02-23T06:17:36.378Z,15.25
2023-02-23T06:20:05.002Z,13.77
2023-02-23T06:22:31.735Z,13.95
2023-02-23T06:24:58.685Z,16.52
2023-02-23T06:27:26.242Z,17.52
2023-02-23T06:29:53.395Z,13.07
2023-02-23T06:32:20.035Z,14.10
2023-02-23T06:34:48.923Z,15.27
2023-02-23T06:37:15.735Z,16.58
2023-02-23T06:39:42.424Z,12.85
2023-02-23T06:42:09.031Z,12.98
2023-02-23T06:44:37.236Z,14.68
2023-02-23T06:47:06.112Z,13.57
2023-02-23T06:49:33.024Z,16.73
2023-02-23T06:52:00.179Z,14.65
2023-02-23T06:54:26.825Z,13.88
2023-02-23T06:56:56.750Z,15.43
2023-02-23T06:59:24.257Z,14.77
2023-02-23T07:01:51.222Z,14.85
2023-02-23T07:04:18.043Z,16.23
2023-02-23T07:06:44.684Z,13.55
2023-02-23T07:09:11.305Z,15.13
2023-02-23T07:11:37.873Z,12.50
2023-02-23T07:14:04.585Z,15.48
2023-02-23T07:16:31.205Z,14.88
2023-02-23T07:18:57.843Z,15.30
2023-02-23T07:21:24.512Z,14.60
2023-02-23T07:23:51.183Z,15.05
2023-02-23T07:26:18.407Z,14.57
2023-02-23T07:28:45.091Z,15.65
2023-02-23T07:31:11.841Z,18.88
2023-02-23T07:33:38.339Z,13.18
2023-02-23T07:36:05.403Z,10.90
2023-02-23T07:38:32.431Z,15.02
2023-02-23T07:40:59.221Z,14.32
2023-02-23T07:43:25.780Z,14.98
2023-02-23T07:45:52.864Z,18.02
2023-02-23T07:48:20.282Z,16.73
2023-02-23T07:50:47.245Z,16.10
2023-02-23T07:53:14.604Z,16.58
2023-02-23T07:55:41.270Z,18.02
2023-02-23T07:58:08.115Z,15.82
2023-02-23T08:00:36.876Z,15.27
2023-02-23T08:03:03.416Z,14.98
2023-02-23T08:05:29.962Z,15.07
2023-02-23T08:07:58.161Z,15.80
2023-02-23T08:10:25.246Z,17.02
2023-02-23T08:12:51.968Z,16.10
2023-02-23T08:15:18.649Z,15.23
2023-02-23T08:17:45.304Z,16.85
2023-02-23T08:20:12.025Z,16.98
2023-02-23T08:22:48.952Z,15.10
2023-02-23T08:25:16.766Z,16.58
2023-02-23T08:27:43.433Z,17.48
2023-02-23T08:30:10.798Z,16.85
2023-02-23T08:32:37.441Z,19.52
2023-02-23T08:35:04.413Z,20.23
2023-02-23T08:37:31.721Z,18.63
2023-02-23T08:39:59.209Z,21.05
2023-02-23T08:42:25.854Z,19.15
2023-02-23T08:44:52.514Z,18.65
2023-02-23T08:47:23.444Z,17.88
2023-02-23T08:49:50.679Z,19.77
2023-02-23T08:52:17.665Z,20.63
2023-02-23T08:54:44.199Z,16.95
2023-02-23T08:57:12.599Z,18.48
2023-02-23T08:59:41.131Z,15.88
2023-02-23T09:02:13.175Z,17.58
2023-02-23T09:04:42.051Z,16.55
2023-02-23T09:07:13.164Z,15.90
2023-02-23T09:09:40.003Z,15.07
2023-02-23T09:12:06.776Z,16.77
2023-02-23T09:14:33.502Z,17.42
2023-02-23T09:17:00.037Z,17.77
2023-02-23T09:19:27.613Z,17.80
2023-02-23T09:21:54.302Z,19.23
2023-02-23T09:24:21.849Z,16.92
2023-02-23T09:26:49.440Z,18.13
2023-02-23T09:29:15.987Z,18.70
2023-02-23T09:31:43.606Z,17.05
2023-02-23T09:34:12.630Z,15.90
2023-02-23T09:36:39.343Z,17.73
2023-02-23T09:39:05.880Z,16.98
2023-02-23T09:42:03.278Z,16.35
2023-02-23T09:44:41.940Z,19.98
2023-02-23T09:47:32.948Z,16.05
2023-02-23T09:50:04.445Z,17.85
2023-02-23T09:52:42.483Z,18.70
2023-02-23T09:55:12.802Z,18.80
2023-02-23T09:57:43.756Z,15.10
2023-02-23T10:00:18.603Z,17.25
2023-02-23T10:03:06.492Z,19.10
2023-02-23T10:05:41.197Z,17.40
2023-02-23T10:08:24.898Z,15.57
2023-02-23T10:11:08.244Z,16.92
2023-02-23T10:13:34.786Z,19.83
2023-02-23T10:16:23.752Z,16.48
2023-02-23T10:19:13.042Z,15.27
2023-02-23T10:21:42.839Z,14.45
2023-02-23T10:24:25.621Z,13.32
2023-02-23T10:26:56.607Z,15.88
2023-02-23T10:29:30.626Z,17.40
2023-02-23T10:32:01.011Z,18.70
2023-02-23T10:34:29.178Z,16.60
2023-02-23T10:37:01.536Z,15.85
2023-02-23T10:39:30.575Z,14.27
2023-02-23T10:42:05.869Z,19.98
2023-02-23T10:44:32.682Z,17.05
2023-02-23T10:47:20.938Z,16.02
2023-02-23T10:49:51.706Z,16.45
2023-02-23T10:52:32.833Z,16.63
2023-02-23T10:55:00.628Z,14.68
2023-02-23T10:57:30.650Z,15.18
2023-02-23T11:00:02.241Z,16.90
2023-02-23T11:02:33.266Z,16.77
2023-02-23T11:05:01.214Z,17.02
2023-02-23T11:07:31.228Z,15.85
2023-02-23T11:10:27.797Z,15.07
2023-02-23T11:12:54.467Z,17.10
2023-02-23T11:15:50.978Z,15.95
2023-02-23T11:18:23.491Z,14.40
2023-02-23T11:20:51.719Z,13.48
2023-02-23T11:23:22.345Z,15.88
2023-02-23T11:25:55.457Z,14.68
2023-02-23T11:28:30.169Z,13.98
2023-02-23T11:31:14.152Z,11.77
2023-02-23T11:33:41.051Z,10.98
2023-02-23T11:36:26.856Z,12.02
2023-02-23T11:39:04.083Z,12.82
2023-02-23T11:41:32.855Z,12.77
2023-02-23T11:44:04.298Z,10.75
2023-02-23T11:46:36.721Z,13.07
2023-02-23T11:49:07.638Z,13.13
2023-02-23T11:51:39.860Z,13.13
2023-02-23T11:54:17.142Z,13.90
2023-02-23T11:56:48.366Z,14.50
2023-02-23T11:59:23.414Z,13.73
2023-02-23T12:01:53.086Z,13.48
2023-02-23T12:04:40.805Z,13.20
2023-02-23T12:07:34.825Z,13.90
2023-02-23T12:10:13.424Z,13.35
2023-02-23T12:12:48.739Z,11.38
2023-02-23T12:15:27.057Z,14.30
2023-02-23T12:18:04.035Z,13.52
2023-02-23T12:20:34.629Z,10.20
2023-02-23T12:23:11.358Z,13.80
2023-02-23T12:26:11.833Z,13.27
2023-02-23T12:28:54.052Z,13.32
2023-02-23T12:31:26.752Z,13.43
2023-02-23T12:33:59.181Z,13.45
2023-02-23T12:36:53.047Z,15.40
2023-02-23T12:39:34.811Z,13.45
2023-02-23T12:42:23.833Z,16.35
2023-02-23T12:44:58.738Z,14.18
2023-02-23T12:47:46.943Z,15.68
2023-02-23T12:50:22.361Z,14.52
2023-02-23T12:52:59.639Z,14.68
2023-02-23T12:55:40.129Z,15.68
2023-02-23T12:58:39.630Z,14.25
2023-02-23T13:01:24.614Z,14.10
2023-02-23T13:04:13.413Z,14.27
2023-02-23T13:06:53.310Z,14.80
2023-02-23T13:09:43.020Z,15.27
2023-02-23T13:12:38.246Z,13.35
2023-02-23T13:15:50.020Z,13.90
2023-02-23T13:18:45.424Z,14.38
2023-02-23T13:21:25.751Z,10.30
2023-02-23T13:24:06.129Z,16.02
2023-02-23T13:26:56.079Z,13.88
2023-02-23T13:29:42.845Z,15.02
2023-02-23T13:32:13.806Z,12.98
2023-02-23T13:34:49.917Z,13.98
2023-02-23T13:37:20.500Z,15.45
2023-02-23T13:40:09.418Z,13.35
2023-02-23T13:43:13.680Z,14.93
2023-02-23T13:45:52.515Z,14.43
2023-02-23T13:48:55.606Z,13.80
2023-02-23T13:51:36.664Z,15.57
2023-02-23T13:54:16.297Z,12.73
2023-02-23T13:56:53.069Z,13.70
2023-02-23T13:59:22.424Z,13.82
2023-02-23T14:01:54.430Z,13.13
2023-02-23T14:04:39.919Z,11.02
2023-02-23T14:07:09.571Z,13.02
2023-02-23T14:09:54.922Z,12.48
2023-02-23T14:12:33.074Z,12.98
2023-02-23T14:15:27.208Z,11.15
2023-02-23T14:17:56.874Z,12.27
2023-02-23T14:20:38.839Z,14.52
2023-02-23T14:23:20.930Z,14.43
2023-02-23T14:25:52.873Z,13.95
2023-02-23T14:28:22.188Z,12.07
2023-02-23T14:31:10.599Z,12.80
2023-02-23T14:33:49.998Z,13.05
2023-02-23T14:36:22.549Z,11.27
2023-02-23T14:39:03.404Z,12.13
2023-02-23T14:41:34.448Z,13.45
2023-02-23T14:44:29.430Z,12.35
2023-02-23T14:47:01.872Z,12.32
2023-02-23T14:49:32.591Z,11.30
2023-02-23T14:52:06.522Z,12.68
2023-02-23T14:54:39.166Z,11.00
2023-02-23T14:57:17.704Z,12.85
2023-02-23T14:59:46.171Z,11.88
2023-02-23T15:02:19.161Z,12.73
2023-02-23T15:04:46.388Z,11.73
2023-02-23T15:07:24.179Z,13.15
2023-02-23T15:09:57.287Z,13.63
2023-02-23T15:12:46.211Z,13.57
2023-02-23T15:15:18.335Z,12.60
2023-02-23T15:17:48.726Z,12.77
2023-02-23T15:20:23.419Z,12.25
2023-02-23T15:22:55.079Z,12.52
2023-02-23T15:25:24.291Z,12.05
2023-02-23T15:27:51.942Z,10.85
2023-02-23T15:30:18.985Z,11.50
2023-02-23T15:32:46.052Z,12.82
2023-02-23T15:35:13.856Z,11.90
2023-02-23T15:40:26.394Z,10.82
2023-02-23T15:42:56.028Z,11.13
2023-02-23T15:45:35.652Z,10.52
2023-02-23T15:48:07.730Z,10.93
2023-02-23T15:50:40.556Z,13.10
2023-02-23T15:53:19.586Z,12.07
2023-02-23T15:55:47.815Z,9.90
2023-02-23T15:58:30.157Z,11.27
2023-02-23T16:01:05.734Z,10.10
2023-02-23T16:03:35.109Z,11.70
2023-02-23T16:06:06.902Z,11.40
2023-02-23T16:08:36.587Z,12.90
2023-02-23T16:11:12.000Z,11.93
2023-02-23T16:13:43.829Z,11.13
2023-02-23T16:16:19.132Z,11.60
2023-02-23T16:18:52.718Z,10.40
2023-02-23T16:21:25.123Z,10.00
2023-02-23T16:23:54.509Z,9.52
2023-02-23T16:26:27.301Z,11.70
2023-02-23T16:29:00.169Z,10.38
2023-02-23T16:31:49.631Z,10.13
2023-02-23T16:34:20.910Z,11.13
2023-02-23T16:36:54.817Z,11.60
2023-02-23T16:39:22.883Z,10.40
2023-02-23T16:41:50.871Z,10.07
2023-02-23T16:44:21.734Z,9.20
2023-02-23T16:46:53.911Z,9.63
2023-02-23T16:49:23.366Z,9.50
2023-02-23T16:51:51.017Z,9.90
2023-02-23T16:54:17.656Z,10.40
2023-02-23T16:56:44.393Z,10.15
2023-02-23T16:59:15.448Z,11.82
2023-02-23T17:01:42.115Z,10.85
2023-02-23T17:04:15.247Z,11.02
2023-02-23T17:06:47.197Z,10.90
2023-02-23T17:09:13.869Z,10.55
2023-02-23T17:11:41.548Z,10.43
2023-02-23T17:16:34.685Z,9.05
2023-02-23T17:19:01.994Z,8.90
2023-02-23T17:21:28.660Z,8.77
2023-02-23T17:24:02.587Z,8.18
2023-02-23T17:26:29.199Z,10.10
2023-02-23T17:28:55.760Z,8.13
2023-02-23T17:31:25.602Z,9.32
2023-02-23T17:33:55.171Z,10.57
2023-02-23T17:36:23.867Z,9.95
2023-02-23T17:38:50.548Z,10.98
2023-02-23T17:41:19.954Z,8.77
2023-02-23T17:43:46.942Z,10.10
2023-02-23T17:46:14.680Z,10.13
2023-02-23T17:48:44.505Z,8.75
2023-02-23T17:51:12.744Z,10.48
2023-02-23T17:53:40.512Z,9.82
2023-02-23T17:58:34.393Z,9.45
2023-02-23T18:01:03.813Z,10.18
2023-02-23T18:03:32.486Z,9.32
2023-02-23T18:06:12.212Z,9.73
2023-02-23T18:08:41.962Z,10.02
2023-02-23T18:11:09.251Z,9.65
2023-02-23T18:13:36.055Z,10.38
2023-02-23T18:16:09.173Z,9.55
2023-02-23T18:18:42.317Z,9.90
2023-02-23T18:21:14.981Z,10.88
2023-02-23T18:23:42.116Z,10.15
2023-02-23T18:26:12.559Z,8.40
2023-02-23T18:28:41.598Z,8.48
2023-02-23T18:31:08.314Z,10.70
2023-02-23T18:33:35.813Z,10.90
2023-02-23T18:36:03.808Z,10.75
2023-02-23T18:38:30.429Z,10.13
2023-02-23T18:40:57.240Z,12.68
2023-02-23T18:43:23.962Z,11.35
2023-02-23T18:45:50.566Z,11.60
2023-02-23T18:48:17.091Z,13.68
2023-02-23T18:50:43.703Z,10.63
2023-02-23T18:53:10.936Z,11.23
2023-02-23T18:55:38.297Z,10.05
2023-02-23T18:58:05.671Z,9.68
2023-02-23T19:00:40.144Z,9.23
2023-02-23T19:03:07.491Z,9.43
2023-02-23T19:05:36.194Z,8.38
2023-02-23T19:08:03.721Z,9.95
2023-02-23T19:10:30.395Z,9.88
2023-02-23T19:12:57.060Z,9.82
2023-02-23T19:15:23.703Z,10.10
2023-02-23T19:17:50.536Z,10.20
2023-02-23T19:20:17.525Z,10.18
2023-02-23T19:22:45.445Z,10.90
2023-02-23T19:25:14.108Z,9.50
2023-02-23T19:27:41.252Z,9.15
2023-02-23T19:30:10.111Z,8.27
2023-02-23T19:32:39.700Z,9.52
2023-02-23T19:35:10.301Z,10.13
2023-02-23T19:37:39.611Z,8.32
2023-02-23T19:40:07.105Z,10.05
2023-02-23T19:42:35.029Z,9.45
2023-02-23T19:45:01.737Z,10.68
2023-02-23T19:47:28.390Z,9.10
2023-02-23T19:49:55.115Z,10.18
2023-02-23T19:52:23.231Z,10.35
2023-02-23T19:54:49.897Z,9.95
2023-02-23T19:57:16.460Z,10.68
2023-02-23T19:59:43.094Z,12.02
2023-02-23T20:02:10.974Z,9.77
2023-02-23T20:04:37.611Z,7.90
2023-02-23T20:07:04.199Z,9.27
2023-02-23T20:09:30.850Z,10.60
2023-02-23T20:11:57.479Z,11.35
2023-02-23T20:14:24.946Z,9.18
2023-02-23T20:16:51.587Z,11.07
2023-02-23T20:19:19.712Z,8.50
2023-02-23T20:21:46.421Z,9.93
2023-02-23T20:24:13.349Z,8.90
2023-02-23T20:26:40.109Z,9.25
2023-02-23T20:29:11.026Z,11.13
2023-02-23T20:31:41.568Z,11.05
2023-02-23T20:34:10.937Z,9.52
2023-02-23T20:36:38.144Z,10.85
2023-02-23T20:39:04.815Z,8.63
2023-02-23T20:41:31.502Z,9.63
2023-02-23T20:44:00.786Z,11.55
2023-02-23T20:46:30.663Z,10.10
2023-02-23T20:48:59.209Z,10.60
2023-02-23T20:51:26.450Z,8.38
2023-02-23T20:53:53.076Z,10.85
2023-02-23T20:56:23.607Z,9.95
2023-02-23T20:58:50.331Z,8.65
2023-02-23T21:01:22.750Z,10.45
2023-02-23T21:03:53.835Z,10.15
2023-02-23T21:06:22.632Z,10.73
2023-02-23T21:08:55.516Z,10.73
2023-02-23T21:11:26.805Z,10.50
2023-02-23T21:13:53.672Z,10.68
2023-02-23T21:16:23.665Z,9.27
2023-02-23T21:18:56.854Z,9.68
2023-02-23T21:21:23.432Z,10.65
2023-02-23T21:23:51.269Z,10.45
2023-02-23T21:26:21.554Z,9.65
2023-02-23T21:28:49.056Z,10.65
2023-02-23T21:31:15.738Z,9.05
2023-02-23T21:33:43.678Z,10.05
2023-02-23T21:36:11.547Z,9.93
2023-02-23T21:38:39.921Z,10.43
2023-02-23T21:41:08.144Z,9.93
2023-02-23T21:43:36.344Z,11.38
2023-02-23T21:46:11.497Z,11.10
2023-02-23T21:48:38.173Z,9.20
2023-02-23T21:51:07.668Z,8.35
2023-02-23T21:53:35.075Z,9.80
2023-02-23T21:56:12.840Z,8.73
2023-02-23T21:58:44.487Z,8.73
2023-02-23T22:01:16.979Z,9.50
2023-02-23T22:03:47.439Z,11.10
2023-02-23T22:06:18.457Z,9.40
2023-02-23T22:08:50.246Z,8.68
2023-02-23T22:11:20.723Z,11.20
2023-02-23T22:13:48.968Z,8.70
2023-02-23T22:16:18.668Z,8.20
2023-02-23T22:18:45.724Z,7.35
2023-02-23T22:21:13.061Z,8.93
2023-02-23T22:23:41.530Z,10.05
2023-02-23T22:26:09.077Z,7.15
2023-02-23T22:28:36.428Z,9.30
2023-02-23T22:31:08.083Z,8.25
2023-02-23T22:33:35.991Z,7.93
2023-02-23T22:36:10.432Z,7.50
2023-02-23T22:38:37.756Z,7.07
2023-02-23T22:41:08.146Z,8.18
2023-02-23T22:43:34.913Z,8.05
2023-02-23T22:46:01.989Z,8.13
2023-02-23T22:48:28.741Z,8.27
2023-02-23T22:50:58.649Z,8.75
2023-02-23T22:53:26.446Z,8.48
2023-02-23T22:55:54.756Z,9.02
2023-02-23T22:58:26.306Z,9.70
2023-02-23T23:01:06.435Z,8.77
2023-02-23T23:03:37.786Z,10.23
2023-02-23T23:06:08.010Z,10.32
2023-02-23T23:08:38.681Z,9.00
2023-02-23T23:11:14.344Z,10.93
2023-02-23T23:13:48.437Z,10.82
2023-02-23T23:16:30.740Z,9.55
2023-02-23T23:19:04.338Z,9.65
2023-02-23T23:21:33.411Z,9.85
2023-02-23T23:24:05.765Z,9.05
2023-02-23T23:26:34.537Z,12.20
2023-02-23T23:29:04.810Z,9.75
2023-02-23T23:31:34.696Z,10.32
2023-02-23T23:34:09.856Z,11.60
2023-02-23T23:36:53.182Z,11.60
2023-02-23T23:39:22.662Z,11.80
2023-02-23T23:41:50.142Z,11.85
2023-02-23T23:44:22.670Z,10.50
2023-02-23T23:46:52.897Z,10.82
2023-02-23T23:49:22.218Z,10.27
2023-02-23T23:51:51.368Z,13.45
2023-02-23T23:54:21.657Z,11.65
2023-02-23T23:56:49.594Z,11.00
2023-02-23T23:59:20.287Z,12.45
